sensor_id;sensor_type;location;lat;lon;timestamp;pressure;altitude;pressure_sealevel;temperature;humidity
32761;BME280;19126;47.472;7.850;2023-02-23T00:01:24;96317.59;;;6.63;22.41
32761;BME280;19126;47.472;7.850;2023-02-23T00:03:56;96321.84;;;6.64;21.82
32761;BME280;19126;47.472;7.850;2023-02-23T00:06:24;96324.47;;;6.64;21.75
32761;BME280;19126;47.472;7.850;2023-02-23T00:08:53;96321.03;;;6.64;21.45
32761;BME280;19126;47.472;7.850;2023-02-23T00:11:21;96317.75;;;6.62;21.74
32761;BME280;19126;47.472;7.850;2023-02-23T00:13:49;96308.59;;;6.57;21.77
32761;BME280;19126;47.472;7.850;2023-02-23T00:16:18;96318.88;;;6.59;21.32
32761;BME280;19126;47.472;7.850;2023-02-23T00:18:47;96314.63;;;6.58;21.54
32761;BME280;19126;47.472;7.850;2023-02-23T00:21:16;96319.19;;;6.56;21.55
32761;BME280;19126;47.472;7.850;2023-02-23T00:23:54;96313.97;;;6.56;20.99
32761;BME280;19126;47.472;7.850;2023-02-23T00:26:25;96310.03;;;6.52;20.89
32761;BME280;19126;47.472;7.850;2023-02-23T00:28:55;96307.28;;;6.53;21.30
32761;BME280;19126;47.472;7.850;2023-02-23T00:31:24;96301.41;;;6.51;20.71
32761;BME280;19126;47.472;7.850;2023-02-23T00:33:52;96313.47;;;6.52;21.26
32761;BME280;19126;47.472;7.850;2023-02-23T00:36:21;96311.66;;;6.53;21.34
32761;BME280;19126;47.472;7.850;2023-02-23T00:38:51;96304.50;;;6.55;20.91
32761;BME280;19126;47.472;7.850;2023-02-23T00:41:19;96310.38;;;6.57;20.73
32761;BME280;19126;47.472;7.850;2023-02-23T00:43:49;96309.06;;;6.53;20.18
32761;BME280;19126;47.472;7.850;2023-02-23T00:46:21;96320.97;;;6.55;20.27
32761;BME280;19126;47.472;7.850;2023-02-23T00:48:49;96298.78;;;6.51;20.32
32761;BME280;19126;47.472;7.850;2023-02-23T00:51:17;96309.88;;;6.53;20.21
32761;BME280;19126;47.472;7.850;2023-02-23T00:53:52;96308.25;;;6.52;20.14
32761;BME280;19126;47.472;7.850;2023-02-23T00:56:20;96300.25;;;6.54;20.30
32761;BME280;19126;47.472;7.850;2023-02-23T00:58:47;96300.41;;;6.52;19.68
32761;BME280;19126;47.472;7.850;2023-02-23T01:01:16;96301.88;;;6.55;19.49
32761;BME280;19126;47.472;7.850;2023-02-23T01:03:43;96301.09;;;6.54;19.87
32761;BME280;19126;47.472;7.850;2023-02-23T01:06:15;96293.41;;;6.53;19.56
32761;BME280;19126;47.472;7.850;2023-02-23T01:08:45;96295.66;;;6.48;19.49
32761;BME280;19126;47.472;7.850;2023-02-23T01:11:15;96297.28;;;6.49;19.14
32761;BME280;19126;47.472;7.850;2023-02-23T01:13:44;96290.44;;;6.48;18.91
32761;BME280;19126;47.472;7.850;2023-02-23T01:16:13;96288.66;;;6.48;18.88
32761;BME280;19126;47.472;7.850;2023-02-23T01:18:43;96283.59;;;6.47;19.12
32761;BME280;19126;47.472;7.850;2023-02-23T01:21:13;96289.78;;;6.45;18.67
32761;BME280;19126;47.472;7.850;2023-02-23T01:23:44;96277.97;;;6.33;18.13
32761;BME280;19126;47.472;7.850;2023-02-23T01:26:15;96290.25;;;6.41;18.78
32761;BME280;19126;47.472;7.850;2023-02-23T01:28:46;96286.81;;;6.40;18.65
32761;BME280;19126;47.472;7.850;2023-02-23T01:31:13;96281.78;;;6.39;18.72
32761;BME280;19126;47.472;7.850;2023-02-23T01:33:42;96274.59;;;6.41;17.90
32761;BME280;19126;47.472;7.850;2023-02-23T01:36:13;96276.56;;;6.39;17.84
32761;BME280;19126;47.472;7.850;2023-02-23T01:38:52;96273.59;;;6.34;18.35
32761;BME280;19126;47.472;7.850;2023-02-23T01:41:21;96280.75;;;6.32;18.36
32761;BME280;19126;47.472;7.850;2023-02-23T01:43:55;96277.81;;;6.26;18.27
32761;BME280;19126;47.472;7.850;2023-02-23T01:46:23;96273.88;;;6.22;18.35
32761;BME280;19126;47.472;7.850;2023-02-23T01:51:29;96272.31;;;6.11;18.55
32761;BME280;19126;47.472;7.850;2023-02-23T01:54:01;96268.25;;;6.09;18.40
32761;BME280;19126;47.472;7.850;2023-02-23T01:56:32;96266.09;;;6.04;18.36
32761;BME280;19126;47.472;7.850;2023-02-23T01:59:04;96270.19;;;6.07;18.14
32761;BME280;19126;47.472;7.850;2023-02-23T02:04:11;96254.63;;;5.97;18.18
32761;BME280;19126;47.472;7.850;2023-02-23T02:06:43;96268.94;;;5.93;18.03
32761;BME280;19126;47.472;7.850;2023-02-23T02:09:22;96257.19;;;5.89;17.83
32761;BME280;19126;47.472;7.850;2023-02-23T02:11:53;96268.38;;;5.81;17.77
32761;BME280;19126;47.472;7.850;2023-02-23T02:14:24;96270.16;;;5.80;18.24
32761;BME280;19126;47.472;7.850;2023-02-23T02:17:11;96267.50;;;5.72;18.10
32761;BME280;19126;47.472;7.850;2023-02-23T02:20:08;96259.19;;;5.68;17.98
32761;BME280;19126;47.472;7.850;2023-02-23T02:26:03;96251.50;;;5.67;18.18
32761;BME280;19126;47.472;7.850;2023-02-23T02:28:48;96255.31;;;5.72;18.20
32761;BME280;19126;47.472;7.850;2023-02-23T02:37:42;96244.75;;;5.56;18.21
32761;BME280;19126;47.472;7.850;2023-02-23T02:40:38;96252.94;;;5.61;18.29
32761;BME280;19126;47.472;7.850;2023-02-23T02:43:23;96242.22;;;5.64;18.41
32761;BME280;19126;47.472;7.850;2023-02-23T02:46:01;96237.13;;;5.63;17.95
32761;BME280;19126;47.472;7.850;2023-02-23T02:48:38;96248.59;;;5.70;17.68
32761;BME280;19126;47.472;7.850;2023-02-23T02:51:27;96239.44;;;5.66;17.74
32761;BME280;19126;47.472;7.850;2023-02-23T02:54:12;96250.53;;;5.68;17.65
32761;BME280;19126;47.472;7.850;2023-02-23T02:56:42;96248.44;;;5.71;17.35
32761;BME280;19126;47.472;7.850;2023-02-23T02:59:11;96249.56;;;5.69;17.50
32761;BME280;19126;47.472;7.850;2023-02-23T03:01:57;96240.63;;;5.71;17.43
32761;BME280;19126;47.472;7.850;2023-02-23T03:04:43;96236.75;;;5.76;17.16
32761;BME280;19126;47.472;7.850;2023-02-23T03:07:30;96239.19;;;5.77;16.66
32761;BME280;19126;47.472;7.850;2023-02-23T03:10:28;96235.78;;;5.77;17.10
32761;BME280;19126;47.472;7.850;2023-02-23T03:13:25;96243.28;;;5.80;16.65
32761;BME280;19126;47.472;7.850;2023-02-23T03:16:20;96241.50;;;5.80;16.80
32761;BME280;19126;47.472;7.850;2023-02-23T03:19:15;96246.88;;;5.79;16.79
32761;BME280;19126;47.472;7.850;2023-02-23T03:22:13;96245.22;;;5.78;16.80
32761;BME280;19126;47.472;7.850;2023-02-23T03:25:03;96232.81;;;5.71;16.44
32761;BME280;19126;47.472;7.850;2023-02-23T03:27:58;96239.84;;;5.79;16.55
32761;BME280;19126;47.472;7.850;2023-02-23T03:31:01;96238.06;;;5.80;16.22
32761;BME280;19126;47.472;7.850;2023-02-23T03:33:57;96234.81;;;5.78;16.62
32761;BME280;19126;47.472;7.850;2023-02-23T03:36:50;96236.75;;;5.76;16.38
32761;BME280;19126;47.472;7.850;2023-02-23T03:39:40;96234.94;;;5.76;16.10
32761;BME280;19126;47.472;7.850;2023-02-23T03:42:32;96238.38;;;5.77;16.61
32761;BME280;19126;47.472;7.850;2023-02-23T03:45:22;96238.56;;;5.83;16.33
32761;BME280;19126;47.472;7.850;2023-02-23T03:48:15;96236.94;;;5.82;16.02
32761;BME280;19126;47.472;7.850;2023-02-23T03:51:05;96244.97;;;5.89;16.02
32761;BME280;19126;47.472;7.850;2023-02-23T03:54:04;96242.38;;;5.89;16.29
32761;BME280;19126;47.472;7.850;2023-02-23T03:56:52;96231.59;;;5.84;16.18
32761;BME280;19126;47.472;7.850;2023-02-23T03:59:41;96244.13;;;5.89;16.05
32761;BME280;19126;47.472;7.850;2023-02-23T04:02:28;96245.94;;;5.88;16.05
32761;BME280;19126;47.472;7.850;2023-02-23T04:05:15;96234.84;;;5.86;15.78
32761;BME280;19126;47.472;7.850;2023-02-23T04:08:05;96228.00;;;5.85;16.27
32761;BME280;19126;47.472;7.850;2023-02-23T04:10:57;96242.88;;;5.93;15.94
32761;BME280;19126;47.472;7.850;2023-02-23T04:13:48;96231.78;;;5.91;15.88
32761;BME280;19126;47.472;7.850;2023-02-23T04:16:23;96232.91;;;5.88;15.97
32761;BME280;19126;47.472;7.850;2023-02-23T04:18:57;96236.53;;;5.95;16.04
32761;BME280;19126;47.472;7.850;2023-02-23T04:21:30;96235.03;;;5.93;16.12
32761;BME280;19126;47.472;7.850;2023-02-23T04:24:04;96230.66;;;5.93;15.99
32761;BME280;19126;47.472;7.850;2023-02-23T04:26:37;96234.06;;;5.94;16.03
32761;BME280;19126;47.472;7.850;2023-02-23T04:29:04;96232.13;;;5.96;15.88
32761;BME280;19126;47.472;7.850;2023-02-23T04:31:32;96239.94;;;5.96;15.90
32761;BME280;19126;47.472;7.850;2023-02-23T04:34:00;96238.97;;;5.97;16.30
32761;BME280;19126;47.472;7.850;2023-02-23T04:36:33;96238.00;;;5.98;16.07
32761;BME280;19126;47.472;7.850;2023-02-23T04:39:05;96237.88;;;5.99;15.79
32761;BME280;19126;47.472;7.850;2023-02-23T04:41:35;96231.97;;;5.97;15.94
32761;BME280;19126;47.472;7.850;2023-02-23T04:44:02;96229.16;;;5.91;15.77
32761;BME280;19126;47.472;7.850;2023-02-23T04:46:29;96239.81;;;5.97;15.53
32761;BME280;19126;47.472;7.850;2023-02-23T04:48:59;96231.97;;;5.97;15.65
32761;BME280;19126;47.472;7.850;2023-02-23T04:51:28;96231.78;;;5.91;15.17
32761;BME280;19126;47.472;7.850;2023-02-23T04:53:57;96239.81;;;5.97;15.95
32761;BME280;19126;47.472;7.850;2023-02-23T04:56:29;96235.69;;;5.95;15.84
32761;BME280;19126;47.472;7.850;2023-02-23T04:58:56;96236.22;;;5.98;15.82
32761;BME280;19126;47.472;7.850;2023-02-23T05:01:25;96237.88;;;5.99;15.87
32761;BME280;19126;47.472;7.850;2023-02-23T05:03:58;96237.59;;;6.03;15.74
32761;BME280;19126;47.472;7.850;2023-02-23T05:06:29;96226.91;;;5.96;16.27
32761;BME280;19126;47.472;7.850;2023-02-23T05:09:03;96238.56;;;6.01;16.04
32761;BME280;19126;47.472;7.850;2023-02-23T05:11:34;96235.25;;;5.99;15.55
32761;BME280;19126;47.472;7.850;2023-02-23T05:14:04;96233.34;;;6.01;15.88
32761;BME280;19126;47.472;7.850;2023-02-23T05:16:32;96238.38;;;6.03;15.63
32761;BME280;19126;47.472;7.850;2023-02-23T05:19:01;96230.84;;;6.00;16.20
32761;BME280;19126;47.472;7.850;2023-02-23T05:21:35;96226.25;;;5.94;15.81
32761;BME280;19126;47.472;7.850;2023-02-23T05:24:06;96246.22;;;6.03;16.12
32761;BME280;19126;47.472;7.850;2023-02-23T05:26:46;96238.25;;;6.05;16.20
32761;BME280;19126;47.472;7.850;2023-02-23T05:29:17;96235.41;;;5.98;16.17
32761;BME280;19126;47.472;7.850;2023-02-23T05:31:44;96234.81;;;6.04;15.81
32761;BME280;19126;47.472;7.850;2023-02-23T05:34:13;96234.81;;;6.04;15.83
32761;BME280;19126;47.472;7.850;2023-02-23T05:36:44;96229.09;;;6.00;16.26
32761;BME280;19126;47.472;7.850;2023-02-23T05:39:20;96232.50;;;6.01;15.99
32761;BME280;19126;47.472;7.850;2023-02-23T05:41:47;96231.31;;;5.95;15.99
32761;BME280;19126;47.472;7.850;2023-02-23T05:44:15;96233.34;;;6.01;15.72
32761;BME280;19126;47.472;7.850;2023-02-23T05:46:44;96227.56;;;5.98;16.21
32761;BME280;19126;47.472;7.850;2023-02-23T05:49:12;96232.66;;;5.99;16.06
32761;BME280;19126;47.472;7.850;2023-02-23T05:51:40;96233.44;;;6.00;15.71
32761;BME280;19126;47.472;7.850;2023-02-23T05:54:09;96234.59;;;5.97;16.30
32761;BME280;19126;47.472;7.850;2023-02-23T05:56:42;96236.75;;;6.02;15.80
32761;BME280;19126;47.472;7.850;2023-02-23T05:59:13;96240.19;;;6.03;16.20
32761;BME280;19126;47.472;7.850;2023-02-23T06:01:47;96235.78;;;6.03;16.29
32761;BME280;19126;47.472;7.850;2023-02-23T06:04:15;96231.72;;;6.00;15.84
32761;BME280;19126;47.472;7.850;2023-02-23T06:06:43;96228.41;;;5.98;15.82
32761;BME280;19126;47.472;7.850;2023-02-23T06:09:11;96225.81;;;5.98;16.04
32761;BME280;19126;47.472;7.850;2023-02-23T06:11:40;96220.91;;;5.95;16.34
32761;BME280;19126;47.472;7.850;2023-02-23T06:14:10;96215.78;;;5.85;15.87
32761;BME280;19126;47.472;7.850;2023-02-23T06:16:40;96229.66;;;5.86;16.55
32761;BME280;19126;47.472;7.850;2023-02-23T06:19:13;96228.31;;;5.82;16.32
32761;BME280;19126;47.472;7.850;2023-02-23T06:21:40;96234.34;;;5.82;16.08
32761;BME280;19126;47.472;7.850;2023-02-23T06:24:07;96232.88;;;5.80;16.24
32761;BME280;19126;47.472;7.850;2023-02-23T06:26:39;96233.84;;;5.79;15.97
32761;BME280;19126;47.472;7.850;2023-02-23T06:29:06;96242.31;;;5.81;16.18
32761;BME280;19126;47.472;7.850;2023-02-23T06:31:38;96236.75;;;5.76;16.18
32761;BME280;19126;47.472;7.850;2023-02-23T06:34:06;96245.59;;;5.83;15.79
32761;BME280;19126;47.472;7.850;2023-02-23T06:36:36;96243.44;;;5.78;16.01
32761;BME280;19126;47.472;7.850;2023-02-23T06:39:08;96252.44;;;5.84;16.13
32761;BME280;19126;47.472;7.850;2023-02-23T06:41:40;96248.34;;;5.81;16.39
32761;BME280;19126;47.472;7.850;2023-02-23T06:44:07;96259.13;;;5.86;16.14
32761;BME280;19126;47.472;7.850;2023-02-23T06:46:34;96267.59;;;5.89;16.13
32761;BME280;19126;47.472;7.850;2023-02-23T06:49:02;96259.94;;;5.87;16.40
32761;BME280;19126;47.472;7.850;2023-02-23T06:51:30;96259.28;;;5.85;15.95
32761;BME280;19126;47.472;7.850;2023-02-23T06:53:57;96266.50;;;5.91;16.07
32761;BME280;19126;47.472;7.850;2023-02-23T06:56:27;96270.75;;;5.92;15.90
32761;BME280;19126;47.472;7.850;2023-02-23T06:59:22;96251.59;;;5.83;16.14
32761;BME280;19126;47.472;7.850;2023-02-23T07:01:52;96268.78;;;5.94;16.55
32761;BME280;19126;47.472;7.850;2023-02-23T07:04:19;96266.84;;;5.96;16.19
32761;BME280;19126;47.472;7.850;2023-02-23T07:06:46;96264.06;;;5.98;16.38
32761;BME280;19126;47.472;7.850;2023-02-23T07:09:13;96276.53;;;6.04;16.25
32761;BME280;19126;47.472;7.850;2023-02-23T07:11:44;96283.41;;;6.13;16.31
32761;BME280;19126;47.472;7.850;2023-02-23T07:14:12;96284.59;;;6.19;16.10
32761;BME280;19126;47.472;7.850;2023-02-23T07:16:43;96285.75;;;6.25;15.94
32761;BME280;19126;47.472;7.850;2023-02-23T07:19:16;96290.88;;;6.35;16.19
32761;BME280;19126;47.472;7.850;2023-02-23T07:21:43;96287.47;;;6.42;16.38
32761;BME280;19126;47.472;7.850;2023-02-23T07:24:10;96286.53;;;6.52;16.56
32761;BME280;19126;47.472;7.850;2023-02-23T07:26:37;96287.22;;;6.62;15.71
32761;BME280;19126;47.472;7.850;2023-02-23T07:29:05;96294.81;;;6.73;16.08
32761;BME280;19126;47.472;7.850;2023-02-23T07:31:36;96288.94;;;6.80;16.54
32761;BME280;19126;47.472;7.850;2023-02-23T07:34:07;96286.16;;;6.81;16.21
32761;BME280;19126;47.472;7.850;2023-02-23T07:36:37;96290.28;;;6.92;15.98
32761;BME280;19126;47.472;7.850;2023-02-23T07:39:04;96297.50;;;6.98;16.80
32761;BME280;19126;47.472;7.850;2023-02-23T07:41:37;96297.66;;;7.05;15.96
32761;BME280;19126;47.472;7.850;2023-02-23T07:44:04;96280.19;;;7.06;16.43
32761;BME280;19126;47.472;7.850;2023-02-23T07:46:35;96292.63;;;7.20;16.56
32761;BME280;19126;47.472;7.850;2023-02-23T07:49:08;96285.44;;;7.14;16.74
32761;BME280;19126;47.472;7.850;2023-02-23T07:51:42;96294.44;;;7.28;16.74
32761;BME280;19126;47.472;7.850;2023-02-23T07:54:09;96289.38;;;7.35;16.77
32761;BME280;19126;47.472;7.850;2023-02-23T07:56:43;96289.38;;;7.35;16.52
32761;BME280;19126;47.472;7.850;2023-02-23T07:59:12;96293.47;;;7.37;16.22
32761;BME280;19126;47.472;7.850;2023-02-23T08:01:42;96295.75;;;7.48;15.92
32761;BME280;19126;47.472;7.850;2023-02-23T08:04:11;96297.72;;;7.55;16.69
32761;BME280;19126;47.472;7.850;2023-02-23T08:06:41;96290.69;;;7.55;15.68
32761;BME280;19126;47.472;7.850;2023-02-23T08:09:11;96299.34;;;7.64;16.53
32761;BME280;19126;47.472;7.850;2023-02-23T08:11:39;96299.53;;;7.71;16.75
32761;BME280;19126;47.472;7.850;2023-02-23T08:14:09;96293.31;;;7.72;15.75
32761;BME280;19126;47.472;7.850;2023-02-23T08:16:39;96297.06;;;7.77;16.20
32761;BME280;19126;47.472;7.850;2023-02-23T08:19:10;96304.41;;;7.90;16.89
32761;BME280;19126;47.472;7.850;2023-02-23T08:21:37;96296.38;;;7.92;16.09
32761;BME280;19126;47.472;7.850;2023-02-23T08:24:09;96294.28;;;7.96;16.14
32761;BME280;19126;47.472;7.850;2023-02-23T08:26:39;96299.34;;;8.05;15.55
32761;BME280;19126;47.472;7.850;2023-02-23T08:29:09;96299.00;;;8.17;16.00
32761;BME280;19126;47.472;7.850;2023-02-23T08:31:42;96296.03;;;8.20;15.33
32761;BME280;19126;47.472;7.850;2023-02-23T08:34:18;96301.56;;;8.33;16.35
32761;BME280;19126;47.472;7.850;2023-02-23T08:36:47;96310.53;;;8.39;15.86
32761;BME280;19126;47.472;7.850;2023-02-23T08:39:17;96303.00;;;8.44;16.21
32761;BME280;19126;47.472;7.850;2023-02-23T08:41:58;96291.06;;;8.42;17.10
32761;BME280;19126;47.472;7.850;2023-02-23T08:44:26;96304.47;;;8.55;17.32
32761;BME280;19126;47.472;7.850;2023-02-23T08:46:56;96308.16;;;8.69;16.79
32761;BME280;19126;47.472;7.850;2023-02-23T08:49:24;96309.78;;;8.78;17.62
32761;BME280;19126;47.472;7.850;2023-02-23T08:51:56;96293.75;;;8.73;20.08
32761;BME280;19126;47.472;7.850;2023-02-23T08:54:26;96307.63;;;8.82;21.62
32761;BME280;19126;47.472;7.850;2023-02-23T08:57:00;96302.06;;;8.85;23.38
32761;BME280;19126;47.472;7.850;2023-02-23T08:59:30;96310.88;;;8.92;27.16
32761;BME280;19126;47.472;7.850;2023-02-23T09:02:01;96306.09;;;8.96;30.68
32761;BME280;19126;47.472;7.850;2023-02-23T09:04:34;96310.13;;;9.07;33.87
32761;BME280;19126;47.472;7.850;2023-02-23T09:07:04;96302.72;;;9.11;39.67
32761;BME280;19126;47.472;7.850;2023-02-23T09:09:34;96300.09;;;9.11;45.40
32761;BME280;19126;47.472;7.850;2023-02-23T09:12:11;96300.84;;;9.28;49.71
32761;BME280;19126;47.472;7.850;2023-02-23T09:14:39;96309.72;;;9.50;51.43
32761;BME280;19126;47.472;7.850;2023-02-23T09:17:09;96311.66;;;9.71;56.21
32761;BME280;19126;47.472;7.850;2023-02-23T09:19:49;96314.41;;;9.78;65.12
32761;BME280;19126;47.472;7.850;2023-02-23T09:22:16;96313.44;;;9.79;74.84
32761;BME280;19126;47.472;7.850;2023-02-23T09:25:03;96310.22;;;10.07;80.86
32761;BME280;19126;47.472;7.850;2023-02-23T09:27:36;96314.66;;;10.06;89.12
32761;BME280;19126;47.472;7.850;2023-02-23T09:30:33;96320.53;;;10.08;95.68
32761;BME280;19126;47.472;7.850;2023-02-23T09:33:10;96308.88;;;10.11;100.00
32761;BME280;19126;47.472;7.850;2023-02-23T09:35:46;96310.88;;;10.09;100.00
32761;BME280;19126;47.472;7.850;2023-02-23T09:38:18;96316.84;;;10.18;100.00
32761;BME280;19126;47.472;7.850;2023-02-23T09:40:48;96310.16;;;10.30;100.00
32761;BME280;19126;47.472;7.850;2023-02-23T09:43:34;96303.84;;;10.39;100.00
32761;BME280;19126;47.472;7.850;2023-02-23T09:46:25;96309.63;;;10.35;100.00
32761;BME280;19126;47.472;7.850;2023-02-23T09:49:01;96309.28;;;10.53;100.00
32761;BME280;19126;47.472;7.850;2023-02-23T09:51:47;96305.34;;;10.94;100.00
32761;BME280;19126;47.472;7.850;2023-02-23T09:54:16;96307.38;;;11.50;100.00
32761;BME280;19126;47.472;7.850;2023-02-23T09:56:48;96309.69;;;12.04;100.00
32761;BME280;19126;47.472;7.850;2023-02-23T09:59:34;96302.16;;;12.29;100.00
32761;BME280;19126;47.472;7.850;2023-02-23T10:02:05;96298.28;;;12.60;100.00
32761;BME280;19126;47.472;7.850;2023-02-23T10:04:45;96308.44;;;12.63;100.00
32761;BME280;19126;47.472;7.850;2023-02-23T10:07:33;96296.97;;;12.42;100.00
32761;BME280;19126;47.472;7.850;2023-02-23T10:10:41;96300.41;;;12.78;100.00
32761;BME280;19126;47.472;7.850;2023-02-23T10:13:20;96297.34;;;12.74;100.00
32761;BME280;19126;47.472;7.850;2023-02-23T10:15:58;96285.19;;;12.38;100.00
32761;BME280;19126;47.472;7.850;2023-02-23T10:18:42;96295.63;;;12.53;100.00
32761;BME280;19126;47.472;7.850;2023-02-23T10:21:16;96299.38;;;12.37;100.00
32761;BME280;19126;47.472;7.850;2023-02-23T10:24:06;96294.63;;;11.97;100.00
32761;BME280;19126;47.472;7.850;2023-02-23T10:26:44;96290.94;;;11.92;100.00
32761;BME280;19126;47.472;7.850;2023-02-23T10:29:26;96292.22;;;11.74;100.00
32761;BME280;19126;47.472;7.850;2023-02-23T10:32:01;96291.00;;;11.77;100.00
32761;BME280;19126;47.472;7.850;2023-02-23T10:34:29;96290.50;;;11.66;100.00
32761;BME280;19126;47.472;7.850;2023-02-23T10:37:04;96295.00;;;11.72;100.00
32761;BME280;19126;47.472;7.850;2023-02-23T10:39:36;96285.38;;;11.58;100.00
32761;BME280;19126;47.472;7.850;2023-02-23T10:42:05;96294.47;;;11.55;100.00
32761;BME280;19126;47.472;7.850;2023-02-23T10:44:54;96289.75;;;11.51;100.00
32761;BME280;19126;47.472;7.850;2023-02-23T10:47:31;96284.59;;;11.36;100.00
32761;BME280;19126;47.472;7.850;2023-02-23T10:50:13;96287.75;;;11.31;100.00
32761;BME280;19126;47.472;7.850;2023-02-23T10:55:36;96297.41;;;11.24;100.00
32761;BME280;19126;47.472;7.850;2023-02-23T10:58:16;96286.88;;;11.24;100.00
32761;BME280;19126;47.472;7.850;2023-02-23T11:00:56;96290.75;;;11.28;100.00
32761;BME280;19126;47.472;7.850;2023-02-23T11:03:27;96274.09;;;11.21;100.00
32761;BME280;19126;47.472;7.850;2023-02-23T11:06:00;96281.44;;;11.47;100.00
32761;BME280;19126;47.472;7.850;2023-02-23T11:08:34;96284.72;;;11.99;100.00
32761;BME280;19126;47.472;7.850;2023-02-23T11:11:25;96281.59;;;12.46;100.00
32761;BME280;19126;47.472;7.850;2023-02-23T11:16:47;96287.00;;;12.73;100.00
32761;BME280;19126;47.472;7.850;2023-02-23T11:19:23;96284.16;;;12.68;100.00
32761;BME280;19126;47.472;7.850;2023-02-23T11:22:01;96284.59;;;12.78;100.00
32761;BME280;19126;47.472;7.850;2023-02-23T11:24:35;96279.72;;;12.75;100.00
32761;BME280;19126;47.472;7.850;2023-02-23T11:27:18;96281.53;;;12.74;100.00
32761;BME280;19126;47.472;7.850;2023-02-23T11:29:56;96275.06;;;12.77;100.00
32761;BME280;19126;47.472;7.850;2023-02-23T11:32:35;96267.28;;;12.62;100.00
32761;BME280;19126;47.472;7.850;2023-02-23T11:35:24;96249.28;;;12.72;100.00
32761;BME280;19126;47.472;7.850;2023-02-23T11:37:57;96253.34;;;12.75;100.00
32761;BME280;19126;47.472;7.850;2023-02-23T11:40:28;96251.13;;;12.72;99.92
32761;BME280;19126;47.472;7.850;2023-02-23T11:43:12;96255.88;;;12.48;98.36
32761;BME280;19126;47.472;7.850;2023-02-23T11:45:44;96245.28;;;12.41;97.31
32761;BME280;19126;47.472;7.850;2023-02-23T11:48:29;96247.41;;;12.59;100.00
32761;BME280;19126;47.472;7.850;2023-02-23T11:50:57;96247.25;;;12.74;100.00
32761;BME280;19126;47.472;7.850;2023-02-23T11:53:34;96239.41;;;12.81;100.00
32761;BME280;19126;47.472;7.850;2023-02-23T11:56:12;96244.50;;;12.89;97.44
32761;BME280;19126;47.472;7.850;2023-02-23T11:58:47;96238.81;;;12.93;96.33
32761;BME280;19126;47.472;7.850;2023-02-23T12:01:16;96235.56;;;12.97;94.67
32761;BME280;19126;47.472;7.850;2023-02-23T12:03:52;96247.78;;;13.12;93.19
32761;BME280;19126;47.472;7.850;2023-02-23T12:06:29;96239.63;;;12.86;88.40
32761;BME280;19126;47.472;7.850;2023-02-23T12:09:04;96229.88;;;12.87;88.39
32761;BME280;19126;47.472;7.850;2023-02-23T12:11:45;96239.22;;;12.96;88.04
32761;BME280;19126;47.472;7.850;2023-02-23T12:14:26;96242.50;;;13.05;92.89
32761;BME280;19126;47.472;7.850;2023-02-23T12:17:05;96246.16;;;13.04;95.38
32761;BME280;19126;47.472;7.850;2023-02-23T12:19:47;96234.56;;;12.92;92.41
32761;BME280;19126;47.472;7.850;2023-02-23T12:22:24;96244.72;;;12.95;93.14
32761;BME280;19126;47.472;7.850;2023-02-23T12:25:02;96245.94;;;12.99;94.70
32761;BME280;19126;47.472;7.850;2023-02-23T12:27:39;96240.84;;;12.97;93.98
32761;BME280;19126;47.472;7.850;2023-02-23T12:30:17;96225.63;;;12.93;94.62
32761;BME280;19126;47.472;7.850;2023-02-23T12:32:53;96232.53;;;12.94;95.20
32761;BME280;19126;47.472;7.850;2023-02-23T12:35:26;96234.78;;;13.03;94.54
32761;BME280;19126;47.472;7.850;2023-02-23T12:37:59;96231.97;;;13.12;94.44
32761;BME280;19126;47.472;7.850;2023-02-23T12:40:33;96242.31;;;13.20;93.25
32761;BME280;19126;47.472;7.850;2023-02-23T12:43:13;96230.97;;;13.19;90.77
32761;BME280;19126;47.472;7.850;2023-02-23T12:45:55;96230.53;;;13.16;87.34
32761;BME280;19126;47.472;7.850;2023-02-23T12:51:24;96220.69;;;13.45;85.98
32761;BME280;19126;47.472;7.850;2023-02-23T12:53:58;96221.72;;;13.71;86.10
32761;BME280;19126;47.472;7.850;2023-02-23T12:56:42;96218.03;;;13.85;87.05
32761;BME280;19126;47.472;7.850;2023-02-23T13:02:17;96211.56;;;13.68;84.14
32761;BME280;19126;47.472;7.850;2023-02-23T13:05:15;96213.78;;;13.77;88.35
32761;BME280;19126;47.472;7.850;2023-02-23T13:07:56;96212.38;;;13.75;87.35
32761;BME280;19126;47.472;7.850;2023-02-23T13:10:35;96203.41;;;13.69;88.38
32761;BME280;19126;47.472;7.850;2023-02-23T13:13:23;96211.75;;;13.80;88.69
32761;BME280;19126;47.472;7.850;2023-02-23T13:15:59;96210.91;;;13.86;89.20
32761;BME280;19126;47.472;7.850;2023-02-23T13:18:35;96203.59;;;13.95;87.53
32761;BME280;19126;47.472;7.850;2023-02-23T13:21:16;96201.38;;;13.91;86.61
32761;BME280;19126;47.472;7.850;2023-02-23T13:23:57;96212.97;;;13.90;86.30
32761;BME280;19126;47.472;7.850;2023-02-23T13:26:34;96212.75;;;13.85;85.78
32761;BME280;19126;47.472;7.850;2023-02-23T13:29:23;96210.53;;;13.69;84.76
32761;BME280;19126;47.472;7.850;2023-02-23T13:31:57;96207.09;;;13.75;87.44
32761;BME280;19126;47.472;7.850;2023-02-23T13:34:31;96208.69;;;13.69;83.85
32761;BME280;19126;47.472;7.850;2023-02-23T13:36:59;96211.13;;;13.51;82.44
32761;BME280;19126;47.472;7.850;2023-02-23T13:39:52;96202.59;;;13.35;83.08
32761;BME280;19126;47.472;7.850;2023-02-23T13:42:41;96211.34;;;13.42;82.06
32761;BME280;19126;47.472;7.850;2023-02-23T13:48:23;96199.94;;;13.89;86.39
32761;BME280;19126;47.472;7.850;2023-02-23T13:51:22;96195.06;;;13.99;83.69
32761;BME280;19126;47.472;7.850;2023-02-23T13:53:59;96190.00;;;13.98;79.85
32761;BME280;19126;47.472;7.850;2023-02-23T13:56:35;96189.50;;;14.21;80.70
32761;BME280;19126;47.472;7.850;2023-02-23T13:59:19;96197.81;;;14.31;84.81
32761;BME280;19126;47.472;7.850;2023-02-23T14:01:59;96198.41;;;14.33;82.20
32761;BME280;19126;47.472;7.850;2023-02-23T14:04:37;96197.81;;;14.31;81.01
32761;BME280;19126;47.472;7.850;2023-02-23T14:07:24;96195.16;;;14.31;81.12
32761;BME280;19126;47.472;7.850;2023-02-23T14:10:20;96196.19;;;14.37;80.00
32761;BME280;19126;47.472;7.850;2023-02-23T14:13:25;96188.69;;;14.27;76.77
32761;BME280;19126;47.472;7.850;2023-02-23T14:16:16;96180.97;;;14.26;79.28
32761;BME280;19126;47.472;7.850;2023-02-23T14:19:04;96185.63;;;14.37;77.75